Pride Of Kent — MQCJ2 — position and weather

sailwx.info

Track history (hours):
 
Tides and Currents Weather Stations Pressure Air Temp Water Temp Dewpoint Dewpoint Depression Visibility Wind Speed Wind Dir Waves Ship Positions

Pride Of Kent

Operator: P & O Ferries

Last reported at 2014-Oct-31 16:33 UTC. Time now 2014-Oct-31 17:16 UTC.
Position N 50°58' E 001°48'.

Length 180 m; draft 6 m.

Type: Passenger vessel. MMSI: 232009000.

Date/timePositionNaut miles runAvg speedWind from/ knotsBaromVisibWave heightAir tempDewpointWater temp
2014-Oct-31 16:33N 50°58' E 001°48'1716.9
2014-Oct-31 15:34N 51°05' E 001°24'3 3.2
2014-Oct-31 14:33N 51°07' E 001°20'1716.7
2014-Oct-31 13:33N 50°59' E 001°43'6 5.6
2014-Oct-31 12:33N 50°58' E 001°52'1111.4
2014-Oct-31 11:34N 51°01' E 001°34'11 9.2
2014-Oct-31 10:22N 51°07' E 001°20'7 8.2
2014-Oct-31 09:33N 51°05' E 001°30'1515.0
2014-Oct-31 08:33N 50°58' E 001°51'2 2.3
2014-Oct-31 07:32N 50°58' E 001°47'1818.5
2014-Oct-31 06:33N 51°07' E 001°22'1 1.4
2014-Oct-31 05:33N 51°07' E 001°20'8 8.0
2014-Oct-31 04:34N 51°04' E 001°31'1313.2
2014-Oct-31 03:33N 50°58' E 001°50'1 0.7
2014-Oct-31 02:33N 50°58' E 001°51'1110.8
2014-Oct-31 01:34N 50°59' E 001°34'1212.1
2014-Oct-31 00:32N 51°07' E 001°20'6 6.0
2014-Oct-30 23:33N 51°05' E 001°28'1615.9
2014-Oct-30 22:33N 50°58' E 001°51'2 2.2
2014-Oct-30 21:33N 50°58' E 001°48'1616.5
2014-Oct-30 20:33N 51°06' E 001°24'3 3.3
2014-Oct-30 19:33N 51°07' E 001°20'10 9.8
2014-Oct-30 18:33N 51°03' E 001°34'1211.8
2014-Oct-30 17:33N 50°58' E 001°51'1 1.5
2014-Oct-30 16:33N 50°58' E 001°49'1918.7
2014-Oct-30 15:34N 51°07' E 001°22'1 1.3
2014-Oct-30 14:34N 51°07' E 001°20'1717.0
2014-Oct-30 13:33N 50°59' E 001°44'5 5.1
2014-Oct-30 12:34N 50°58' E 001°52'1212.2
2014-Oct-30 11:34N 51°01' E 001°33'10 8.0
2014-Oct-30 10:17N 51°07' E 001°20'810.7
2014-Oct-30 09:33N 51°04' E 001°31'1413.8
2014-Oct-30 08:34N 50°58' E 001°51'5 5.2
2014-Oct-30 07:32N 50°59' E 001°42'1714.6
2014-Oct-30 06:23N 51°07' E 001°20'0 0.0
2014-Oct-30 05:30N 51°07' E 001°20'4 4.6
2014-Oct-30 04:33N 51°06' E 001°27'1717.2
2014-Oct-30 03:33N 50°58' E 001°51'0 0.3
2014-Oct-30 02:34N 50°58' E 001°52'1313.1
2014-Oct-30 01:33N 50°60' E 001°31'10 6.8
2014-Oct-30 00:05N 51°07' E 001°20'815.2
2014-Oct-29 23:34N 51°04' E 001°32'1413.4
2014-Oct-29 22:32N 50°58' E 001°51'1 0.8
2014-Oct-29 21:33N 50°58' E 001°50'1515.7
2014-Oct-29 20:33N 51°02' E 001°26'6 4.0
2014-Oct-29 19:06N 51°07' E 001°22'1019.0
2014-Oct-29 18:33N 51°03' E 001°37'10 9.3
2014-Oct-29 17:31N 50°58' E 001°51'8 8.6
2014-Oct-29 16:32N 50°58' E 001°38'10 5.0
2014-Oct-29 14:34N 51°06' E 001°28'1716.7
2014-Oct-29 13:33N 50°58' E 001°51'0 0.2
2014-Oct-29 12:33N 50°58' E 001°52'1414.2
2014-Oct-29 11:33N 51°02' E 001°30'8 5.6
2014-Oct-29 10:07N 51°07' E 001°20'713.3
2014-Oct-29 09:33N 51°04' E 001°30'1414.0
2014-Oct-29 08:32N 50°58' E 001°51'4 3.6
2014-Oct-29 07:34N 50°58' E 001°45'1716.9
2014-Oct-29 06:33N 51°07' E 001°22'6 2.9
2014-Oct-29 04:34N 51°04' E 001°31'1414.4
2014-Oct-29 03:34N 50°58' E 001°51'0 0.2
2014-Oct-29 02:33N 50°58' E 001°52'1413.6
2014-Oct-29 01:33N 51°02' E 001°31'9 8.4
2014-Oct-29 00:31N 51°07' E 001°20'7 6.8
2014-Oct-28 23:33N 51°05' E 001°29'1515.0
2014-Oct-28 22:33N 50°58' E 001°51'0 0.1
2014-Oct-28 21:33N 50°58' E 001°51'1615.9
2014-Oct-28 20:34N 51°03' E 001°27'6 4.9
2014-Oct-28 19:18N 51°07' E 001°20'810.8
2014-Oct-28 18:34N 51°05' E 001°32'1413.6
2014-Oct-28 17:33N 50°58' E 001°51'4 4.4
2014-Oct-28 16:33N 50°58' E 001°44'1816.0
2014-Oct-28 15:27N 51°07' E 001°20'2 2.1
2014-Oct-28 14:34N 51°07' E 001°23'1817.6
2014-Oct-28 13:33N 50°58' E 001°47'3 2.7
2014-Oct-28 12:33N 50°58' E 001°52'1515.1
2014-Oct-28 11:33N 51°02' E 001°28'8 5.5
2014-Oct-28 10:09N 51°07' E 001°20'914.4
2014-Oct-28 09:34N 51°04' E 001°33'1313.0
2014-Oct-28 08:33N 50°58' E 001°51'3 3.4
2014-Oct-28 07:33N 50°58' E 001°46'1817.9
2014-Oct-28 06:32N 51°07' E 001°21'0 0.4
2014-Oct-28 05:29N 51°07' E 001°20'6 6.7
2014-Oct-28 04:34N 51°06' E 001°30'1615.7
2014-Oct-28 03:34N 50°58' E 001°51'0 0.1
2014-Oct-28 02:32N 50°58' E 001°51'1312.8
2014-Oct-28 01:33N 51°01' E 001°32'10 8.6
2014-Oct-28 00:26N 51°07' E 001°20'1213.9
2014-Oct-27 23:34N 51°01' E 001°37'10 9.8
2014-Oct-27 22:33N 50°58' E 001°51'7 6.9
2014-Oct-27 21:32N 50°58' E 001°40'1613.1
2014-Oct-27 20:19N 51°07' E 001°20'1 1.1
2014-Oct-27 19:33N 51°07' E 001°21'1919.2
2014-Oct-27 18:33N 50°58' E 001°48'2 2.1
2014-Oct-27 17:33N 50°58' E 001°52'1312.7
2014-Oct-27 16:34N 51°01' E 001°32'6 2.8
2014-Oct-27 14:34N 51°06' E 001°28'1716.6
2014-Oct-27 13:33N 50°58' E 001°51'0 0.2
2014-Oct-27 12:34N 50°58' E 001°52'1616.1
2014-Oct-27 11:34N 51°04' E 001°28'6 5.6
2014-Oct-27 10:28N 51°07' E 001°20'1314.5
2014-Oct-27 09:33N 51°01' E 001°38'8 8.3
2014-Oct-27 08:33N 50°58' E 001°51'4 3.7
2014-Oct-27 07:33N 50°58' E 001°45'1818.3
2014-Oct-27 06:34N 51°07' E 001°20'1 0.6
2014-Oct-27 05:29N 51°07' E 001°20'6 6.4
2014-Oct-27 04:33N 51°06' E 001°29'1615.8
2014-Oct-27 03:33N 50°58' E 001°51'0 0.3
2014-Oct-27 02:33N 50°58' E 001°52'8 8.2
2014-Oct-27 01:33N 50°59' E 001°39'1412.1
2014-Oct-27 00:21N 51°07' E 001°20'6 7.3
2014-Oct-26 23:33N 51°06' E 001°29'1615.7
2014-Oct-26 22:34N 50°58' E 001°51'1 0.6
2014-Oct-26 21:33N 50°58' E 001°52'1514.6
2014-Oct-26 20:33N 51°03' E 001°30'7 5.6
2014-Oct-26 19:14N 51°07' E 001°20'1116.0
2014-Oct-26 18:33N 51°03' E 001°36'1111.0
2014-Oct-26 17:33N 50°58' E 001°52'7 7.4
2014-Oct-26 16:33N 50°58' E 001°40'11 5.7
2014-Oct-26 14:34N 51°06' E 001°27'1616.4
2014-Oct-26 13:34N 50°58' E 001°50'1 1.2
2014-Oct-26 12:33N 50°58' E 001°52'1413.8
2014-Oct-26 11:33N 51°01' E 001°30'9 7.1
2014-Oct-26 10:19N 51°07' E 001°20'912.5
2014-Oct-26 09:34N 51°04' E 001°34'1212.3
2014-Oct-26 08:34N 50°58' E 001°51'3 2.6
2014-Oct-26 07:34N 50°58' E 001°47'1818.4
2014-Oct-26 06:33N 51°07' E 001°21'1 0.9
2014-Oct-26 05:33N 51°07' E 001°20'4 4.1
2014-Oct-26 04:34N 51°07' E 001°26'1817.6
2014-Oct-26 03:33N 50°58' E 001°51'0 0.1
2014-Oct-26 02:33N 50°58' E 001°51'0 0.0
2014-Oct-26 01:33N 50°58' E 001°51'9 9.3
2014-Oct-26 00:34N 50°60' E 001°37'13 9.3
2014-Oct-25 23:08N 51°07' E 001°20'5 9.4
2014-Oct-25 22:33N 51°07' E 001°29'1515.3
2014-Oct-25 21:33N 50°58' E 001°49'1 1.0
2014-Oct-25 20:34N 50°58' E 001°51'1616.3
2014-Oct-25 19:33N 51°03' E 001°26'6 5.7
2014-Oct-25 18:33N 51°07' E 001°20'1616.0
2014-Oct-25 17:33N 50°59' E 001°42'6 6.3
2014-Oct-25 16:33N 50°58' E 001°52'10 9.5
2014-Oct-25 15:33N 50°60' E 001°37'13 8.8
2014-Oct-25 14:05N 51°07' E 001°20'612.2
2014-Oct-25 13:34N 51°05' E 001°30'1515.3
2014-Oct-25 12:33N 50°58' E 001°51'1 0.8
2014-Oct-25 11:33N 50°59' E 001°50'1413.8
2014-Oct-25 10:33N 51°03' E 001°30'7 5.7
2014-Oct-25 09:18N 51°07' E 001°20'1215.8
2014-Oct-25 08:34N 51°02' E 001°36'1010.1
2014-Oct-25 07:33N 50°58' E 001°51'5 4.7
2014-Oct-25 06:33N 50°58' E 001°44'18 8.7
2014-Oct-25 04:31N 51°07' E 001°20'6 6.0
2014-Oct-25 03:33N 51°06' E 001°29'1515.0
2014-Oct-25 02:33N 50°58' E 001°50'1 0.8
2014-Oct-25 01:33N 50°58' E 001°51'1111.5
2014-Oct-25 00:33N 51°00' E 001°33'11 8.5
2014-Oct-24 23:16N 51°07' E 001°20'1014.3
2014-Oct-24 22:33N 51°05' E 001°36'1212.2
2014-Oct-24 21:33N 50°58' E 001°51'7 7.3
2014-Oct-24 20:34N 50°58' E 001°40'14 6.9
2014-Oct-24 18:33N 51°07' E 001°23'1918.6
2014-Oct-24 17:33N 50°58' E 001°50'1 1.2
2014-Oct-24 16:33N 50°58' E 001°51'1616.4
2014-Oct-24 15:34N 51°05' E 001°27'5 4.8
2014-Oct-24 14:26N 51°07' E 001°20'1112.3
2014-Oct-24 13:33N 51°03' E 001°36'1111.3
2014-Oct-24 12:33N 50°58' E 001°52'0 0.3
2014-Oct-24 11:33N 50°58' E 001°51'1717.3
2014-Oct-24 10:33N 51°05' E 001°26'4 3.8
2014-Oct-24 09:26N 51°07' E 001°20'1415.8
2014-Oct-24 08:33N 51°01' E 001°39'8 7.7
2014-Oct-24 07:33N 50°58' E 001°51'1010.2
2014-Oct-24 06:33N 51°00' E 001°35'1212.1
2014-Oct-24 05:33N 51°07' E 001°20'4 3.8
2014-Oct-24 04:34N 51°07' E 001°26'1717.5
2014-Oct-24 03:33N 50°58' E 001°50'1 0.6
2014-Oct-24 02:33N 50°58' E 001°51'4 4.3
2014-Oct-24 01:34N 51°02' E 001°54'1716.7
2014-Oct-24 00:34N 51°04' E 002°20'1 1.5
2014-Oct-23 23:33N 51°03' E 002°22'0 0.1
2014-Oct-23 22:33N 51°03' E 002°22'0 0.0
2014-Oct-23 21:34N 51°03' E 002°22'0 0.0
2014-Oct-23 20:33N 51°03' E 002°22'0 0.0
2014-Oct-23 19:33N 51°03' E 002°22'0 0.0
2014-Oct-23 18:34N 51°03' E 002°22'0 0.0
2014-Oct-23 17:33N 51°03' E 002°22'0 0.0
2014-Oct-23 16:34N 51°03' E 002°22'0 0.0
2014-Oct-23 15:34N 51°03' E 002°22'0 0.0
2014-Oct-23 14:33N 51°03' E 002°22'0 0.0
2014-Oct-23 13:34N 51°03' E 002°22'0 0.0
2014-Oct-23 12:34N 51°03' E 002°22'0 0.0
2014-Oct-23 11:32N 51°03' E 002°22'0 0.0
2014-Oct-23 10:34N 51°03' E 002°22'0 0.0
2014-Oct-23 09:34N 51°03' E 002°22'0 0.0
2014-Oct-23 08:33N 51°03' E 002°22'0 0.0
2014-Oct-23 07:33N 51°03' E 002°22'0 0.0
2014-Oct-23 06:34N 51°03' E 002°22'0 0.0
2014-Oct-23 05:34N 51°03' E 002°22'0 0.0
2014-Oct-23 04:34N 51°03' E 002°22'0 0.0
2014-Oct-23 03:33N 51°03' E 002°22'0 0.0
2014-Oct-23 02:33N 51°03' E 002°22'0 0.0
2014-Oct-23 01:34N 51°03' E 002°22'0 0.0
2014-Oct-23 00:34N 51°03' E 002°22'0 0.0
2014-Oct-22 23:33N 51°03' E 002°22'0 0.0
2014-Oct-22 22:34N 51°03' E 002°22'0 0.0
2014-Oct-22 21:34N 51°03' E 002°22'0 0.0
2014-Oct-22 20:33N 51°03' E 002°22'0 0.0
2014-Oct-22 19:34N 51°03' E 002°22'0 0.0
2014-Oct-22 18:33N 51°03' E 002°22'0 0.0
2014-Oct-22 17:34N 51°03' E 002°22'0 0.0
2014-Oct-22 16:34N 51°03' E 002°22'0 0.0
2014-Oct-22 15:33N 51°03' E 002°22'0 0.0
2014-Oct-22 14:34N 51°03' E 002°22'0 0.0
2014-Oct-22 13:34N 51°03' E 002°22'0 0.0
2014-Oct-22 12:33N 51°03' E 002°22'0 0.0
2014-Oct-22 11:34N 51°03' E 002°22'0 0.0
2014-Oct-22 10:34N 51°03' E 002°22'0 0.0
2014-Oct-22 09:33N 51°03' E 002°22'0 0.0
2014-Oct-22 08:34N 51°03' E 002°22'0 0.0
2014-Oct-22 07:34N 51°03' E 002°22'0 0.0
2014-Oct-22 06:34N 51°03' E 002°22'0 0.1
2014-Oct-22 05:33N 51°03' E 002°22'0 0.1
2014-Oct-22 04:33N 51°03' E 002°22'0 0.0
2014-Oct-22 03:34N 51°03' E 002°22'0 0.0
2014-Oct-22 02:33N 51°03' E 002°22'0 0.0
2014-Oct-22 01:33N 51°03' E 002°22'0 0.0
2014-Oct-22 00:33N 51°03' E 002°22'0 0.0
2014-Oct-21 23:34N 51°03' E 002°22'0 0.0
2014-Oct-21 22:33N 51°03' E 002°22'0 0.0
2014-Oct-21 21:33N 51°03' E 002°22'0 0.0
2014-Oct-21 20:33N 51°03' E 002°22'0 0.0
2014-Oct-21 19:33N 51°03' E 002°22'0 0.0
2014-Oct-21 18:34N 51°03' E 002°22'0 0.0
2014-Oct-21 17:33N 51°03' E 002°22'0 0.0
2014-Oct-21 16:34N 51°03' E 002°22'  
Track history (hours):
 
Tides and Currents Weather Stations Pressure Air Temp Water Temp Dewpoint Dewpoint Depression Visibility Wind Speed Wind Dir Waves Ship Positions

Pride Of Kent

Operator: P & O Ferries

Last reported at 2014-Oct-31 16:33 UTC. Time now 2014-Oct-31 17:16 UTC.
Position N 50°58' E 001°48'.

Length 180 m; draft 6 m.

Type: Passenger vessel. MMSI: 232009000.

Date/timePositionNaut miles runAvg speedWind from/ knotsBaromVisibWave heightAir tempDewpointWater temp
2014-Oct-31 16:33N 50°58' E 001°48'1716.9
2014-Oct-31 15:34N 51°05' E 001°24'3 3.2
2014-Oct-31 14:33N 51°07' E 001°20'1716.7
2014-Oct-31 13:33N 50°59' E 001°43'6 5.6
2014-Oct-31 12:33N 50°58' E 001°52'1111.4
2014-Oct-31 11:34N 51°01' E 001°34'11 9.2
2014-Oct-31 10:22N 51°07' E 001°20'7 8.2
2014-Oct-31 09:33N 51°05' E 001°30'1515.0
2014-Oct-31 08:33N 50°58' E 001°51'2 2.3
2014-Oct-31 07:32N 50°58' E 001°47'1818.5
2014-Oct-31 06:33N 51°07' E 001°22'1 1.4
2014-Oct-31 05:33N 51°07' E 001°20'8 8.0
2014-Oct-31 04:34N 51°04' E 001°31'1313.2
2014-Oct-31 03:33N 50°58' E 001°50'1 0.7
2014-Oct-31 02:33N 50°58' E 001°51'1110.8
2014-Oct-31 01:34N 50°59' E 001°34'1212.1
2014-Oct-31 00:32N 51°07' E 001°20'6 6.0
2014-Oct-30 23:33N 51°05' E 001°28'1615.9
2014-Oct-30 22:33N 50°58' E 001°51'2 2.2
2014-Oct-30 21:33N 50°58' E 001°48'1616.5
2014-Oct-30 20:33N 51°06' E 001°24'3 3.3
2014-Oct-30 19:33N 51°07' E 001°20'10 9.8
2014-Oct-30 18:33N 51°03' E 001°34'1211.8
2014-Oct-30 17:33N 50°58' E 001°51'1 1.5
2014-Oct-30 16:33N 50°58' E 001°49'1918.7
2014-Oct-30 15:34N 51°07' E 001°22'1 1.3
2014-Oct-30 14:34N 51°07' E 001°20'1717.0
2014-Oct-30 13:33N 50°59' E 001°44'5 5.1
2014-Oct-30 12:34N 50°58' E 001°52'1212.2
2014-Oct-30 11:34N 51°01' E 001°33'10 8.0
2014-Oct-30 10:17N 51°07' E 001°20'810.7
2014-Oct-30 09:33N 51°04' E 001°31'1413.8
2014-Oct-30 08:34N 50°58' E 001°51'5 5.2
2014-Oct-30 07:32N 50°59' E 001°42'1714.6
2014-Oct-30 06:23N 51°07' E 001°20'0 0.0
2014-Oct-30 05:30N 51°07' E 001°20'4 4.6
2014-Oct-30 04:33N 51°06' E 001°27'1717.2
2014-Oct-30 03:33N 50°58' E 001°51'0 0.3
2014-Oct-30 02:34N 50°58' E 001°52'1313.1
2014-Oct-30 01:33N 50°60' E 001°31'10 6.8
2014-Oct-30 00:05N 51°07' E 001°20'815.2
2014-Oct-29 23:34N 51°04' E 001°32'1413.4
2014-Oct-29 22:32N 50°58' E 001°51'1 0.8
2014-Oct-29 21:33N 50°58' E 001°50'1515.7
2014-Oct-29 20:33N 51°02' E 001°26'6 4.0
2014-Oct-29 19:06N 51°07' E 001°22'1019.0
2014-Oct-29 18:33N 51°03' E 001°37'10 9.3
2014-Oct-29 17:31N 50°58' E 001°51'8 8.6
2014-Oct-29 16:32N 50°58' E 001°38'10 5.0
2014-Oct-29 14:34N 51°06' E 001°28'1716.7
2014-Oct-29 13:33N 50°58' E 001°51'0 0.2
2014-Oct-29 12:33N 50°58' E 001°52'1414.2
2014-Oct-29 11:33N 51°02' E 001°30'8 5.6
2014-Oct-29 10:07N 51°07' E 001°20'713.3
2014-Oct-29 09:33N 51°04' E 001°30'1414.0
2014-Oct-29 08:32N 50°58' E 001°51'4 3.6
2014-Oct-29 07:34N 50°58' E 001°45'1716.9
2014-Oct-29 06:33N 51°07' E 001°22'6 2.9
2014-Oct-29 04:34N 51°04' E 001°31'1414.4
2014-Oct-29 03:34N 50°58' E 001°51'0 0.2
2014-Oct-29 02:33N 50°58' E 001°52'1413.6
2014-Oct-29 01:33N 51°02' E 001°31'9 8.4
2014-Oct-29 00:31N 51°07' E 001°20'7 6.8
2014-Oct-28 23:33N 51°05' E 001°29'1515.0
2014-Oct-28 22:33N 50°58' E 001°51'0 0.1
2014-Oct-28 21:33N 50°58' E 001°51'1615.9
2014-Oct-28 20:34N 51°03' E 001°27'6 4.9
2014-Oct-28 19:18N 51°07' E 001°20'810.8
2014-Oct-28 18:34N 51°05' E 001°32'1413.6
2014-Oct-28 17:33N 50°58' E 001°51'4 4.4
2014-Oct-28 16:33N 50°58' E 001°44'1816.0
2014-Oct-28 15:27N 51°07' E 001°20'2 2.1
2014-Oct-28 14:34N 51°07' E 001°23'1817.6
2014-Oct-28 13:33N 50°58' E 001°47'3 2.7
2014-Oct-28 12:33N 50°58' E 001°52'1515.1
2014-Oct-28 11:33N 51°02' E 001°28'8 5.5
2014-Oct-28 10:09N 51°07' E 001°20'914.4
2014-Oct-28 09:34N 51°04' E 001°33'1313.0
2014-Oct-28 08:33N 50°58' E 001°51'3 3.4
2014-Oct-28 07:33N 50°58' E 001°46'1817.9
2014-Oct-28 06:32N 51°07' E 001°21'0 0.4
2014-Oct-28 05:29N 51°07' E 001°20'6 6.7
2014-Oct-28 04:34N 51°06' E 001°30'1615.7
2014-Oct-28 03:34N 50°58' E 001°51'0 0.1
2014-Oct-28 02:32N 50°58' E 001°51'1312.8
2014-Oct-28 01:33N 51°01' E 001°32'10 8.6
2014-Oct-28 00:26N 51°07' E 001°20'1213.9
2014-Oct-27 23:34N 51°01' E 001°37'10 9.8
2014-Oct-27 22:33N 50°58' E 001°51'7 6.9
2014-Oct-27 21:32N 50°58' E 001°40'1613.1
2014-Oct-27 20:19N 51°07' E 001°20'1 1.1
2014-Oct-27 19:33N 51°07' E 001°21'1919.2
2014-Oct-27 18:33N 50°58' E 001°48'2 2.1
2014-Oct-27 17:33N 50°58' E 001°52'1312.7
2014-Oct-27 16:34N 51°01' E 001°32'6 2.8
2014-Oct-27 14:34N 51°06' E 001°28'1716.6
2014-Oct-27 13:33N 50°58' E 001°51'0 0.2
2014-Oct-27 12:34N 50°58' E 001°52'1616.1
2014-Oct-27 11:34N 51°04' E 001°28'6 5.6
2014-Oct-27 10:28N 51°07' E 001°20'1314.5
2014-Oct-27 09:33N 51°01' E 001°38'8 8.3
2014-Oct-27 08:33N 50°58' E 001°51'4 3.7
2014-Oct-27 07:33N 50°58' E 001°45'1818.3
2014-Oct-27 06:34N 51°07' E 001°20'1 0.6
2014-Oct-27 05:29N 51°07' E 001°20'6 6.4
2014-Oct-27 04:33N 51°06' E 001°29'1615.8
2014-Oct-27 03:33N 50°58' E 001°51'0 0.3
2014-Oct-27 02:33N 50°58' E 001°52'8 8.2
2014-Oct-27 01:33N 50°59' E 001°39'1412.1
2014-Oct-27 00:21N 51°07' E 001°20'6 7.3
2014-Oct-26 23:33N 51°06' E 001°29'1615.7
2014-Oct-26 22:34N 50°58' E 001°51'1 0.6
2014-Oct-26 21:33N 50°58' E 001°52'1514.6
2014-Oct-26 20:33N 51°03' E 001°30'7 5.6
2014-Oct-26 19:14N 51°07' E 001°20'1116.0
2014-Oct-26 18:33N 51°03' E 001°36'1111.0
2014-Oct-26 17:33N 50°58' E 001°52'7 7.4
2014-Oct-26 16:33N 50°58' E 001°40'11 5.7
2014-Oct-26 14:34N 51°06' E 001°27'1616.4
2014-Oct-26 13:34N 50°58' E 001°50'1 1.2
2014-Oct-26 12:33N 50°58' E 001°52'1413.8
2014-Oct-26 11:33N 51°01' E 001°30'9 7.1
2014-Oct-26 10:19N 51°07' E 001°20'912.5
2014-Oct-26 09:34N 51°04' E 001°34'1212.3
2014-Oct-26 08:34N 50°58' E 001°51'3 2.6
2014-Oct-26 07:34N 50°58' E 001°47'1818.4
2014-Oct-26 06:33N 51°07' E 001°21'1 0.9
2014-Oct-26 05:33N 51°07' E 001°20'4 4.1
2014-Oct-26 04:34N 51°07' E 001°26'1817.6
2014-Oct-26 03:33N 50°58' E 001°51'0 0.1
2014-Oct-26 02:33N 50°58' E 001°51'0 0.0
2014-Oct-26 01:33N 50°58' E 001°51'9 9.3
2014-Oct-26 00:34N 50°60' E 001°37'13 9.3
2014-Oct-25 23:08N 51°07' E 001°20'5 9.4
2014-Oct-25 22:33N 51°07' E 001°29'1515.3
2014-Oct-25 21:33N 50°58' E 001°49'1 1.0
2014-Oct-25 20:34N 50°58' E 001°51'1616.3
2014-Oct-25 19:33N 51°03' E 001°26'6 5.7
2014-Oct-25 18:33N 51°07' E 001°20'1616.0
2014-Oct-25 17:33N 50°59' E 001°42'6 6.3
2014-Oct-25 16:33N 50°58' E 001°52'10 9.5
2014-Oct-25 15:33N 50°60' E 001°37'13 8.8
2014-Oct-25 14:05N 51°07' E 001°20'612.2
2014-Oct-25 13:34N 51°05' E 001°30'1515.3
2014-Oct-25 12:33N 50°58' E 001°51'1 0.8
2014-Oct-25 11:33N 50°59' E 001°50'1413.8
2014-Oct-25 10:33N 51°03' E 001°30'7 5.7
2014-Oct-25 09:18N 51°07' E 001°20'1215.8
2014-Oct-25 08:34N 51°02' E 001°36'1010.1
2014-Oct-25 07:33N 50°58' E 001°51'5 4.7
2014-Oct-25 06:33N 50°58' E 001°44'18 8.7
2014-Oct-25 04:31N 51°07' E 001°20'6 6.0
2014-Oct-25 03:33N 51°06' E 001°29'1515.0
2014-Oct-25 02:33N 50°58' E 001°50'1 0.8
2014-Oct-25 01:33N 50°58' E 001°51'1111.5
2014-Oct-25 00:33N 51°00' E 001°33'11 8.5
2014-Oct-24 23:16N 51°07' E 001°20'1014.3
2014-Oct-24 22:33N 51°05' E 001°36'1212.2
2014-Oct-24 21:33N 50°58' E 001°51'7 7.3
2014-Oct-24 20:34N 50°58' E 001°40'14 6.9
2014-Oct-24 18:33N 51°07' E 001°23'1918.6
2014-Oct-24 17:33N 50°58' E 001°50'1 1.2
2014-Oct-24 16:33N 50°58' E 001°51'1616.4
2014-Oct-24 15:34N 51°05' E 001°27'5 4.8
2014-Oct-24 14:26N 51°07' E 001°20'1112.3
2014-Oct-24 13:33N 51°03' E 001°36'1111.3
2014-Oct-24 12:33N 50°58' E 001°52'0 0.3
2014-Oct-24 11:33N 50°58' E 001°51'1717.3
2014-Oct-24 10:33N 51°05' E 001°26'4 3.8
2014-Oct-24 09:26N 51°07' E 001°20'1415.8
2014-Oct-24 08:33N 51°01' E 001°39'8 7.7
2014-Oct-24 07:33N 50°58' E 001°51'1010.2
2014-Oct-24 06:33N 51°00' E 001°35'1212.1
2014-Oct-24 05:33N 51°07' E 001°20'4 3.8
2014-Oct-24 04:34N 51°07' E 001°26'1717.5
2014-Oct-24 03:33N 50°58' E 001°50'1 0.6
2014-Oct-24 02:33N 50°58' E 001°51'4 4.3
2014-Oct-24 01:34N 51°02' E 001°54'1716.7
2014-Oct-24 00:34N 51°04' E 002°20'1 1.5
2014-Oct-23 23:33N 51°03' E 002°22'0 0.1
2014-Oct-23 22:33N 51°03' E 002°22'0 0.0
2014-Oct-23 21:34N 51°03' E 002°22'0 0.0
2014-Oct-23 20:33N 51°03' E 002°22'0 0.0
2014-Oct-23 19:33N 51°03' E 002°22'0 0.0
2014-Oct-23 18:34N 51°03' E 002°22'0 0.0
2014-Oct-23 17:33N 51°03' E 002°22'0 0.0
2014-Oct-23 16:34N 51°03' E 002°22'0 0.0
2014-Oct-23 15:34N 51°03' E 002°22'0 0.0
2014-Oct-23 14:33N 51°03' E 002°22'0 0.0
2014-Oct-23 13:34N 51°03' E 002°22'0 0.0
2014-Oct-23 12:34N 51°03' E 002°22'0 0.0
2014-Oct-23 11:32N 51°03' E 002°22'0 0.0
2014-Oct-23 10:34N 51°03' E 002°22'0 0.0
2014-Oct-23 09:34N 51°03' E 002°22'0 0.0
2014-Oct-23 08:33N 51°03' E 002°22'0 0.0
2014-Oct-23 07:33N 51°03' E 002°22'0 0.0
2014-Oct-23 06:34N 51°03' E 002°22'0 0.0
2014-Oct-23 05:34N 51°03' E 002°22'0 0.0
2014-Oct-23 04:34N 51°03' E 002°22'0 0.0
2014-Oct-23 03:33N 51°03' E 002°22'0 0.0
2014-Oct-23 02:33N 51°03' E 002°22'0 0.0
2014-Oct-23 01:34N 51°03' E 002°22'0 0.0
2014-Oct-23 00:34N 51°03' E 002°22'0 0.0
2014-Oct-22 23:33N 51°03' E 002°22'0 0.0
2014-Oct-22 22:34N 51°03' E 002°22'0 0.0
2014-Oct-22 21:34N 51°03' E 002°22'0 0.0
2014-Oct-22 20:33N 51°03' E 002°22'0 0.0
2014-Oct-22 19:34N 51°03' E 002°22'0 0.0
2014-Oct-22 18:33N 51°03' E 002°22'0 0.0
2014-Oct-22 17:34N 51°03' E 002°22'0 0.0
2014-Oct-22 16:34N 51°03' E 002°22'0 0.0
2014-Oct-22 15:33N 51°03' E 002°22'0 0.0
2014-Oct-22 14:34N 51°03' E 002°22'0 0.0
2014-Oct-22 13:34N 51°03' E 002°22'0 0.0
2014-Oct-22 12:33N 51°03' E 002°22'0 0.0
2014-Oct-22 11:34N 51°03' E 002°22'0 0.0
2014-Oct-22 10:34N 51°03' E 002°22'0 0.0
2014-Oct-22 09:33N 51°03' E 002°22'0 0.0
2014-Oct-22 08:34N 51°03' E 002°22'0 0.0
2014-Oct-22 07:34N 51°03' E 002°22'0 0.0
2014-Oct-22 06:34N 51°03' E 002°22'0 0.1
2014-Oct-22 05:33N 51°03' E 002°22'0 0.1
2014-Oct-22 04:33N 51°03' E 002°22'0 0.0
2014-Oct-22 03:34N 51°03' E 002°22'0 0.0
2014-Oct-22 02:33N 51°03' E 002°22'0 0.0
2014-Oct-22 01:33N 51°03' E 002°22'0 0.0
2014-Oct-22 00:33N 51°03' E 002°22'0 0.0
2014-Oct-21 23:34N 51°03' E 002°22'0 0.0
2014-Oct-21 22:33N 51°03' E 002°22'0 0.0
2014-Oct-21 21:33N 51°03' E 002°22'0 0.0
2014-Oct-21 20:33N 51°03' E 002°22'0 0.0
2014-Oct-21 19:33N 51°03' E 002°22'0 0.0
2014-Oct-21 18:34N 51°03' E 002°22'0 0.0
2014-Oct-21 17:33N 51°03' E 002°22'0 0.0
2014-Oct-21 16:34N 51°03' E 002°22'  

Dump ship's entire track history